Time;durP1;ratioP1;P1;durP2;ratioP2;P2;SDS_P1;SDS_P2;PMS_P1;PMS_P2;Temp;Humidity;BMP_temperature;BMP_pressure;BME280_temperature;BME280_humidity;BME280_pressure;Samples;Min_cycle;Max_cycle;Signal;HPM_P1;HPM_P2
2021/10/04 00:03:40;;;;;;;3.05;2.35;;;;;;;10.74;71.26;100163.19;8600475;33;20181;-77
2021/10/04 00:08:43;;;;;;;6.13;2.75;;;;;;;10.76;71.04;100177.34;8599396;33;20212;-75
2021/10/04 00:13:46;;;;;;;2.38;1.95;;;;;;;10.84;70.87;100185.63;8601049;33;20244;-76
2021/10/04 00:18:51;;;;;;;2.35;1.90;;;;;;;10.74;70.74;100188.22;8601136;33;20150;-75
2021/10/04 00:23:54;;;;;;;3.75;2.40;;;;;;;10.79;70.65;100188.69;8601275;33;20185;-75
2021/10/04 00:28:57;;;;;;;2.83;2.20;;;;;;;10.85;70.53;100219.56;8599799;33;20196;-74
2021/10/04 00:34:01;;;;;;;3.03;1.77;;;;;;;10.72;70.87;100225.09;8599890;33;20232;-76
2021/10/04 00:39:05;;;;;;;3.47;1.92;;;;;;;10.80;70.85;100203.81;8600225;33;20682;-77
2021/10/04 00:44:08;;;;;;;3.90;2.45;;;;;;;10.54;71.93;100234.72;8603372;33;20986;-75
2021/10/04 00:49:13;;;;;;;2.92;2.30;;;;;;;10.62;71.51;100245.69;8605504;33;20243;-75
2021/10/04 00:54:16;;;;;;;4.90;3.15;;;;;;;10.63;71.81;100251.91;8605363;33;20185;-76
2021/10/04 00:59:20;;;;;;;3.92;3.05;;;;;;;10.55;72.55;100239.09;8606325;33;21056;-77
2021/10/04 01:04:26;;;;;;;5.80;3.38;;;;;;;10.63;72.24;100241.16;8605905;33;20243;-75
2021/10/04 01:09:29;;;;;;;5.43;3.25;;;;;;;10.50;72.52;100242.16;8604765;33;20181;-75
2021/10/04 01:14:32;;;;;;;4.35;3.08;;;;;;;10.48;72.61;100251.34;8605522;33;20560;-75
2021/10/04 01:19:40;;;;;;;5.57;3.00;;;;;;;10.39;72.62;100245.75;8605461;33;20181;-75
2021/10/04 01:24:45;;;;;;;5.28;3.25;;;;;;;10.50;72.28;100252.06;8604905;33;20446;-75
2021/10/04 01:29:48;;;;;;;3.33;2.63;;;;;;;10.30;72.91;100270.66;8605032;33;20181;-75
2021/10/04 01:34:50;;;;;;;4.95;2.95;;;;;;;10.48;71.97;100272.84;8603013;33;20415;-76
2021/10/04 01:39:59;;;;;;;4.18;2.47;;;;;;;10.39;72.01;100283.34;8604619;33;20214;-76
2021/10/04 01:45:03;;;;;;;2.78;2.28;;;;;;;10.35;72.15;100262.25;8603955;33;20185;-75
2021/10/04 01:50:09;;;;;;;4.35;2.40;;;;;;;10.31;72.25;100252.72;8604000;33;20304;-76
2021/10/04 01:55:15;;;;;;;3.40;2.10;;;;;;;10.34;71.88;100261.41;8602776;33;20177;-77
2021/10/04 02:00:21;;;;;;;5.95;2.50;;;;;;;10.34;71.77;100266.75;8602073;33;20146;-75
2021/10/04 02:05:26;;;;;;;2.58;1.75;;;;;;;10.20;72.20;100272.38;8602214;33;20137;-75
2021/10/04 02:10:36;;;;;;;4.15;1.73;;;;;;;10.39;71.16;100250.25;8603242;33;20189;-75
2021/10/04 02:15:41;;;;;;;2.08;1.63;;;;;;;10.32;71.15;100263.34;8602497;33;20429;-76
2021/10/04 02:20:47;;;;;;;3.85;1.60;;;;;;;10.49;70.61;100267.31;8601126;33;20149;-75
2021/10/04 02:25:53;;;;;;;3.25;1.75;;;;;;;10.38;70.68;100251.25;8600808;33;20146;-76
2021/10/04 02:30:56;;;;;;;2.75;1.50;;;;;;;10.38;70.67;100248.56;8602489;33;20191;-77
2021/10/04 02:35:59;;;;;;;1.58;1.45;;;;;;;10.20;71.31;100250.06;8602247;33;20599;-76
2021/10/04 02:41:04;;;;;;;3.60;1.60;;;;;;;10.03;71.48;100254.13;8602764;33;20558;-76
2021/10/04 02:46:07;;;;;;;3.47;1.30;;;;;;;10.15;71.34;100261.19;8600075;33;20189;-77
2021/10/04 02:51:10;;;;;;;2.40;1.40;;;;;;;10.12;71.21;100267.66;8601373;33;20196;-75
2021/10/04 02:56:15;;;;;;;2.35;2.15;;;;;;;10.09;71.26;100269.72;8601536;33;20149;-76
2021/10/04 03:01:18;;;;;;;3.80;1.30;;;;;;;9.98;71.42;100267.91;8601636;33;20430;-76
2021/10/04 03:06:21;;;;;;;1.60;1.40;;;;;;;10.22;70.58;100278.50;8600517;33;20196;-76
2021/10/04 03:11:26;;;;;;;1.90;1.52;;;;;;;10.29;70.29;100278.84;8602615;33;20149;-76
2021/10/04 03:16:28;;;;;;;2.25;1.20;;;;;;;10.16;70.58;100287.03;8601177;33;20243;-76
2021/10/04 03:21:32;;;;;;;1.70;1.38;;;;;;;10.16;70.62;100289.72;8601474;33;20157;-75
2021/10/04 03:26:36;;;;;;;7.10;1.52;;;;;;;10.08;70.79;100286.81;8601431;33;20181;-76
2021/10/04 03:31:39;;;;;;;1.90;1.58;;;;;;;10.09;70.77;100288.50;8600123;33;20185;-77
2021/10/04 03:36:44;;;;;;;2.20;1.50;;;;;;;10.07;70.81;100315.50;8600565;33;20169;-76
2021/10/04 03:41:48;;;;;;;2.53;1.65;;;;;;;10.01;70.92;100294.50;8600428;33;20690;-77
2021/10/04 03:46:51;;;;;;;2.75;1.42;;;;;;;10.06;70.61;100310.22;8600222;33;20188;-77
2021/10/04 03:51:54;;;;;;;4.45;1.63;;;;;;;10.01;71.22;100324.03;8600480;33;20188;-78
2021/10/04 03:56:58;;;;;;;2.35;1.33;;;;;;;9.91;71.54;100323.91;8599769;33;20255;-77
2021/10/04 04:02:01;;;;;;;2.65;1.70;;;;;;;9.91;71.50;100320.38;8600781;33;20462;-77
2021/10/04 04:07:04;;;;;;;1.52;1.42;;;;;;;9.83;71.85;100331.66;8600403;33;20141;-76
2021/10/04 04:12:09;;;;;;;2.65;1.50;;;;;;;10.00;71.40;100345.59;8600937;33;20133;-76
2021/10/04 04:17:12;;;;;;;3.88;1.40;;;;;;;10.04;71.30;100336.31;8601380;33;20195;-77
2021/10/04 04:22:15;;;;;;;1.63;1.50;;;;;;;10.01;71.45;100348.19;8603593;33;20570;-77
2021/10/04 04:27:19;;;;;;;2.20;1.50;;;;;;;10.09;71.11;100355.59;8604867;33;20480;-77
2021/10/04 04:32:22;;;;;;;3.83;1.42;;;;;;;10.08;71.09;100354.75;8605045;33;20145;-76
2021/10/04 04:37:25;;;;;;;2.47;1.60;;;;;;;10.10;71.12;100354.66;8605372;33;20179;-77
2021/10/04 04:42:29;;;;;;;1.35;1.15;;;;;;;10.00;71.26;100367.09;8605550;33;20233;-77
2021/10/04 04:47:33;;;;;;;2.03;1.33;;;;;;;10.10;70.99;100368.06;8604266;33;20604;-76
2021/10/04 04:52:36;;;;;;;2.63;1.50;;;;;;;10.03;70.91;100367.69;8604968;33;20181;-77
2021/10/04 04:57:41;;;;;;;3.70;1.50;;;;;;;10.17;70.56;100354.03;8604859;33;20634;-78
2021/10/04 05:02:47;;;;;;;2.28;1.63;;;;;;;10.25;70.16;100371.34;8604507;33;20145;-77
2021/10/04 05:07:50;;;;;;;3.17;1.35;;;;;;;10.13;70.55;100359.78;8604204;33;20149;-76
2021/10/04 05:12:54;;;;;;;2.25;1.48;;;;;;;10.20;70.35;100374.38;8604762;33;20189;-76
2021/10/04 05:17:57;;;;;;;2.20;1.15;;;;;;;10.23;70.08;100363.44;8604995;33;20133;-77
2021/10/04 05:23:01;;;;;;;3.70;1.30;;;;;;;10.31;70.07;100371.72;8605436;33;20150;-77
2021/10/04 05:28:06;;;;;;;2.40;1.58;;;;;;;10.35;69.96;100370.50;8601999;33;20204;-76
2021/10/04 05:33:09;;;;;;;4.47;1.70;;;;;;;10.40;69.61;100359.38;8605780;33;20189;-77
2021/10/04 05:38:12;;;;;;;2.40;1.20;;;;;;;10.51;69.39;100377.31;8604862;33;20204;-76
2021/10/04 05:43:16;;;;;;;4.65;1.50;;;;;;;10.52;69.30;100381.72;8603940;33;20698;-77
2021/10/04 05:48:20;;;;;;;1.40;1.30;;;;;;;10.53;69.61;100378.91;8604496;33;20142;-76
2021/10/04 05:53:23;;;;;;;2.85;1.40;;;;;;;10.63;68.85;100389.75;8602631;33;20251;-76
2021/10/04 05:58:27;;;;;;;3.53;1.40;;;;;;;10.66;68.75;100397.56;8603759;33;20181;-77
2021/10/04 06:03:30;;;;;;;3.00;1.20;;;;;;;10.66;68.74;100378.75;8604182;33;20176;-77
2021/10/04 06:08:33;;;;;;;2.97;1.38;;;;;;;10.75;68.73;100404.88;8604264;33;20896;-76
2021/10/04 06:13:37;;;;;;;2.03;1.77;;;;;;;10.75;68.66;100425.50;8604936;33;20181;-76
2021/10/04 06:18:40;;;;;;;4.20;1.20;;;;;;;10.84;68.36;100397.91;8603995;33;20632;-77
2021/10/04 06:23:43;;;;;;;1.10;1.00;;;;;;;10.91;67.70;100411.66;8604426;33;20732;-76
2021/10/04 06:28:48;;;;;;;2.97;1.20;;;;;;;11.07;67.26;100433.63;8603872;33;20457;-76
2021/10/04 06:33:51;;;;;;;4.93;1.73;;;;;;;10.87;67.78;100450.53;8603059;33;20181;-76
2021/10/04 06:38:53;;;;;;;1.15;1.05;;;;;;;11.18;66.83;100455.13;8603597;33;20185;-76
2021/10/04 06:43:58;;;;;;;1.70;1.30;;;;;;;11.11;66.82;100470.03;8601599;33;20220;-73
2021/10/04 06:49:01;;;;;;;1.17;1.08;;;;;;;11.16;66.80;100481.31;8602835;33;20192;-76
2021/10/04 06:54:04;;;;;;;2.25;1.08;;;;;;;11.09;67.12;100506.09;8602133;33;20188;-75
2021/10/04 06:59:08;;;;;;;1.40;1.30;;;;;;;11.17;66.99;100498.28;8602811;33;20231;-76
2021/10/04 07:04:11;;;;;;;3.80;1.10;;;;;;;11.37;66.52;100502.03;8602751;33;20185;-74
2021/10/04 07:09:14;;;;;;;2.63;1.10;;;;;;;11.52;65.88;100500.75;8602736;33;20185;-74
2021/10/04 07:14:18;;;;;;;1.15;0.98;;;;;;;11.41;66.42;100508.84;8602243;33;20300;-74
2021/10/04 07:19:21;;;;;;;4.38;1.00;;;;;;;11.53;65.63;100496.22;8602350;33;20890;-74
2021/10/04 07:24:24;;;;;;;2.55;1.13;;;;;;;11.56;65.97;100506.72;8602310;33;21968;-74
2021/10/04 07:29:28;;;;;;;3.88;1.42;;;;;;;11.57;65.96;100511.97;8598064;33;20243;-76
2021/10/04 07:34:32;;;;;;;4.25;1.15;;;;;;;11.62;65.98;100519.66;8600818;33;20297;-76
2021/10/04 07:39:35;;;;;;;3.10;1.08;;;;;;;11.49;66.45;100512.63;8597997;33;20177;-76
2021/10/04 07:44:40;;;;;;;2.17;1.00;;;;;;;11.64;66.02;100501.56;8601051;33;20732;-75
2021/10/04 07:49:43;;;;;;;2.30;1.00;;;;;;;11.84;65.28;100508.78;8600774;33;20181;-76
2021/10/04 07:54:46;;;;;;;4.30;1.33;;;;;;;11.76;65.52;100522.03;8600984;33;20177;-75
2021/10/04 07:59:50;;;;;;;3.45;1.30;;;;;;;11.83;65.50;100520.56;8601161;33;20195;-76
2021/10/04 08:04:53;;;;;;;2.08;1.10;;;;;;;11.85;65.62;100531.22;8601462;33;20424;-76
2021/10/04 08:09:56;;;;;;;3.78;1.00;;;;;;;11.84;65.69;100519.56;8600154;33;20555;-75
2021/10/04 08:15:00;;;;;;;1.63;1.23;;;;;;;12.06;65.46;100523.13;8600944;33;20189;-76
2021/10/04 08:20:08;;;;;;;2.85;1.38;;;;;;;12.09;65.50;100541.72;8601285;33;20142;-76
2021/10/04 08:25:12;;;;;;;1.38;1.00;;;;;;;12.01;65.37;100528.06;8600721;33;20196;-75
2021/10/04 08:30:17;;;;;;;1.30;1.00;;;;;;;11.94;65.17;100542.03;8601417;33;20162;-76
2021/10/04 08:35:20;;;;;;;6.18;1.10;;;;;;;12.11;65.22;100534.38;8601018;33;20530;-75
2021/10/04 08:40:23;;;;;;;1.17;1.08;;;;;;;12.14;65.21;100534.94;8599546;33;20181;-75
2021/10/04 08:45:29;;;;;;;1.33;1.10;;;;;;;12.13;65.17;100548.56;8600744;33;20470;-76
2021/10/04 08:50:32;;;;;;;2.90;1.08;;;;;;;12.34;65.03;100537.81;8596776;33;20190;-76
2021/10/04 08:55:35;;;;;;;3.35;1.75;;;;;;;12.62;64.41;100535.44;8599935;33;20199;-76
2021/10/04 09:00:40;;;;;;;1.67;1.38;;;;;;;12.48;64.14;100540.19;8600344;33;20165;-76
2021/10/04 09:05:45;;;;;;;0.93;0.82;;;;;;;12.57;64.21;100525.06;8604050;33;20728;-75
2021/10/04 09:10:55;;;;;;;3.65;1.15;;;;;;;12.73;63.64;100517.34;8604028;33;20149;-76
2021/10/04 09:15:59;;;;;;;2.85;1.30;;;;;;;12.78;63.47;100533.06;8605133;33;20637;-75
2021/10/04 09:21:07;;;;;;;3.50;1.30;;;;;;;12.91;63.08;100531.00;8605296;33;20703;-75
2021/10/04 09:26:10;;;;;;;2.67;1.50;;;;;;;13.18;62.14;100519.59;8604237;33;20849;-75
2021/10/04 09:31:22;;;;;;;1.48;1.08;;;;;;;13.27;61.88;100521.50;8603303;33;20146;-75
2021/10/04 09:36:25;;;;;;;1.27;1.00;;;;;;;13.53;61.55;100526.38;8603859;33;20593;-76
2021/10/04 09:41:28;;;;;;;2.08;0.90;;;;;;;13.35;61.52;100549.59;8605078;33;20149;-76
2021/10/04 09:46:33;;;;;;;1.27;1.10;;;;;;;13.52;61.61;100548.09;8602723;33;20181;-75
2021/10/04 09:51:36;;;;;;;2.05;1.20;;;;;;;13.58;61.45;100561.06;8604370;33;21594;-76
2021/10/04 09:56:39;;;;;;;2.10;1.25;;;;;;;13.60;61.40;100553.66;8604303;33;20170;-75
2021/10/04 10:01:45;;;;;;;4.03;1.10;;;;;;;14.00;60.95;100569.75;8603871;33;20924;-76
2021/10/04 10:06:48;;;;;;;3.13;1.17;;;;;;;14.25;60.37;100575.56;8603454;33;21011;-76
2021/10/04 10:12:00;;;;;;;2.20;1.20;;;;;;;14.43;59.58;100578.44;8602550;33;20220;-76
2021/10/04 10:17:09;;;;;;;2.03;1.25;;;;;;;14.24;59.29;100581.97;8601224;33;20158;-75
2021/10/04 10:22:15;;;;;;;1.25;1.02;;;;;;;14.31;59.15;100580.41;8601148;33;20154;-76
2021/10/04 10:27:18;;;;;;;1.52;1.02;;;;;;;14.99;57.71;100554.06;8602254;33;20193;-76
2021/10/04 10:32:22;;;;;;;2.50;1.10;;;;;;;15.45;56.95;100546.03;8604140;33;20185;-76
2021/10/04 10:37:29;;;;;;;2.75;1.15;;;;;;;15.51;56.37;100545.41;8604450;33;20212;-76
2021/10/04 10:42:35;;;;;;;3.70;1.17;;;;;;;15.86;55.31;100549.16;8604395;33;20177;-75
2021/10/04 10:47:54;;;;;;;1.45;1.17;;;;;;;16.06;54.64;100553.41;8603501;33;20276;-75
2021/10/04 10:53:17;;;;;;;2.92;0.95;;;;;;;16.06;54.76;100537.13;8603363;33;20144;-76
2021/10/04 10:58:24;;;;;;;4.65;0.90;;;;;;;16.80;53.36;100537.69;8601994;33;20794;-76
2021/10/04 11:03:29;;;;;;;3.92;0.90;;;;;;;17.14;51.83;100548.59;8602710;33;20220;-76
2021/10/04 11:08:58;;;;;;;3.42;0.63;;;;;;;16.88;51.45;100551.28;8601461;33;20185;-76
2021/10/04 11:14:15;;;;;;;2.00;0.85;;;;;;;18.54;48.50;100536.88;8602701;33;20449;-77
2021/10/04 11:19:31;;;;;;;3.55;0.80;;;;;;;18.14;48.02;100546.75;8602169;33;20184;-76
2021/10/04 11:24:37;;;;;;;4.32;1.05;;;;;;;18.36;47.10;100552.53;8600832;33;20180;-76
2021/10/04 11:29:40;;;;;;;2.60;0.90;;;;;;;18.02;48.39;100533.66;8601914;33;20830;-77
2021/10/04 11:34:44;;;;;;;3.60;1.00;;;;;;;18.63;45.83;100545.88;8604050;33;20410;-75
2021/10/04 11:39:47;;;;;;;1.00;0.90;;;;;;;18.34;45.24;100544.53;8603870;33;20247;-76
2021/10/04 11:44:50;;;;;;;1.77;0.75;;;;;;;18.44;45.29;100533.50;8601702;33;20180;-76
2021/10/04 11:49:55;;;;;;;1.95;0.63;;;;;;;18.15;45.71;100531.28;8601515;33;20726;-76
2021/10/04 11:54:57;;;;;;;2.03;1.20;;;;;;;17.70;46.03;100551.63;8601183;33;20141;-75
2021/10/04 12:00:08;;;;;;;1.30;0.70;;;;;;;17.04;46.90;100547.81;8601460;33;20165;-76
2021/10/04 12:05:19;;;;;;;1.08;0.70;;;;;;;17.15;47.33;100546.72;8601015;33;20714;-76
2021/10/04 12:10:22;;;;;;;0.82;0.80;;;;;;;18.97;43.28;100534.72;8601567;33;20665;-76
2021/10/04 12:15:28;;;;;;;2.85;1.00;;;;;;;19.68;41.51;100546.50;8657599;33;20133;-76
2021/10/04 12:20:32;;;;;;;1.48;0.68;;;;;;;17.99;43.55;100539.44;8658196;33;20211;-76
2021/10/04 12:25:35;;;;;;;1.40;0.77;;;;;;;18.49;43.98;100533.81;8656922;33;20174;-76
2021/10/04 12:30:43;;;;;;;3.20;1.10;;;;;;;18.77;43.49;100530.69;8657817;33;20422;-76
2021/10/04 12:35:50;;;;;;;2.05;0.80;;;;;;;18.70;43.48;100521.53;8656849;33;20152;-76
2021/10/04 12:41:00;;;;;;;0.95;0.82;;;;;;;19.20;42.12;100536.72;8661791;33;20180;-76
2021/10/04 12:46:10;;;;;;;1.05;0.57;;;;;;;19.53;41.13;100525.63;8661009;33;20189;-76
2021/10/04 12:51:19;;;;;;;1.30;0.60;;;;;;;18.76;41.60;100515.41;8638449;33;20177;-75
2021/10/04 12:56:25;;;;;;;1.48;0.95;;;;;;;19.60;41.50;100513.00;8635608;33;20196;-76
2021/10/04 13:01:28;;;;;;;1.52;0.77;;;;;;;19.69;40.72;100495.56;8660334;33;20191;-76
2021/10/04 13:06:36;;;;;;;1.25;0.80;;;;;;;18.49;42.15;100503.91;8660511;33;20173;-77
2021/10/04 13:11:46;;;;;;;0.82;0.77;;;;;;;18.90;42.16;100516.59;8661805;33;20191;-76
2021/10/04 13:16:50;;;;;;;1.45;0.85;;;;;;;19.07;40.75;100507.31;8660569;33;20176;-76
2021/10/04 13:21:55;;;;;;;2.03;0.80;;;;;;;21.14;37.38;100493.44;8649184;33;20152;-76
2021/10/04 13:26:58;;;;;;;1.05;0.98;;;;;;;21.07;37.33;100502.63;8635725;33;20159;-77
2021/10/04 13:32:01;;;;;;;2.63;0.70;;;;;;;23.10;35.05;100494.75;8660162;33;20188;-77
2021/10/04 13:37:05;;;;;;;1.05;0.80;;;;;;;21.91;35.61;100491.16;8659699;33;20188;-76
2021/10/04 13:42:08;;;;;;;3.33;0.80;;;;;;;22.45;34.84;100485.09;8636342;33;20191;-76
2021/10/04 13:47:12;;;;;;;0.80;0.70;;;;;;;22.80;34.51;100493.34;8635303;33;20512;-76
2021/10/04 13:52:16;;;;;;;1.67;0.68;;;;;;;23.77;33.57;100478.53;8659661;33;20558;-77
2021/10/04 13:57:19;;;;;;;1.80;0.63;;;;;;;22.96;34.82;100488.34;8660127;33;20694;-77
2021/10/04 14:02:22;;;;;;;1.95;0.90;;;;;;;22.10;35.33;100487.75;8660388;33;20192;-77
2021/10/04 14:07:26;;;;;;;1.08;0.93;;;;;;;21.34;36.42;100495.59;8660507;33;20503;-76
2021/10/04 14:12:29;;;;;;;1.05;0.82;;;;;;;20.91;37.30;100496.28;8660590;33;20203;-77
2021/10/04 14:17:32;;;;;;;2.00;0.70;;;;;;;21.97;35.21;100488.50;8659896;33;20242;-77
2021/10/04 14:22:37;;;;;;;1.38;0.98;;;;;;;22.15;35.83;100484.44;8659603;33;20145;-77
2021/10/04 14:27:40;;;;;;;1.65;0.90;;;;;;;24.09;33.55;100487.84;8658833;33;20831;-77
2021/10/04 14:32:43;;;;;;;1.30;0.90;;;;;;;23.21;34.62;100485.13;8659334;33;20194;-77
2021/10/04 14:37:50;;;;;;;1.65;0.70;;;;;;;22.11;36.00;100492.19;8640385;33;20560;-77
2021/10/04 14:42:54;;;;;;;1.38;0.80;;;;;;;22.46;34.91;100504.09;8659549;33;20246;-76
2021/10/04 14:47:57;;;;;;;1.23;0.80;;;;;;;22.04;35.74;100494.03;8659695;33;20188;-77
2021/10/04 14:53:01;;;;;;;1.70;0.90;;;;;;;21.33;37.06;100486.53;8659595;33;20192;-77
2021/10/04 14:58:04;;;;;;;2.05;0.68;;;;;;;21.55;36.60;100492.03;8658485;33;20145;-76
2021/10/04 15:03:07;;;;;;;2.33;0.70;;;;;;;21.60;36.34;100486.84;8657949;33;20497;-76
2021/10/04 15:08:11;;;;;;;1.25;0.85;;;;;;;19.14;40.80;100491.97;8658942;33;20514;-76
2021/10/04 15:13:14;;;;;;;1.00;0.60;;;;;;;18.72;41.73;100498.56;8659264;33;20676;-76
2021/10/04 15:18:17;;;;;;;0.88;0.80;;;;;;;18.91;42.01;100505.50;8635896;33;21444;-75
2021/10/04 15:23:22;;;;;;;3.10;0.90;;;;;;;18.37;42.04;100491.69;8657773;33;20153;-76
2021/10/04 15:28:25;;;;;;;1.17;0.90;;;;;;;18.06;43.17;100484.25;8658028;33;20215;-75
2021/10/04 15:33:28;;;;;;;3.20;1.40;;;;;;;17.82;43.59;100490.50;8657534;33;20181;-75
2021/10/04 15:38:32;;;;;;;1.52;0.85;;;;;;;17.73;43.65;100480.66;8601060;33;20189;-75
2021/10/04 15:43:35;;;;;;;0.88;0.88;;;;;;;17.55;44.00;100483.53;8615027;33;20654;-75
2021/10/04 15:48:38;;;;;;;0.80;0.80;;;;;;;17.46;44.37;100479.09;8656838;33;20161;-75
2021/10/04 15:53:44;;;;;;;1.92;0.70;;;;;;;17.28;44.50;100486.50;8656379;33;20180;-74
2021/10/04 15:58:48;;;;;;;0.90;0.90;;;;;;;16.71;45.75;100481.69;8657077;33;20187;-75
2021/10/04 16:03:51;;;;;;;1.75;1.00;;;;;;;16.44;46.69;100489.00;8631192;33;20153;-75
2021/10/04 16:08:56;;;;;;;1.92;0.70;;;;;;;16.21;47.20;100487.78;8632584;33;20792;-75
2021/10/04 16:14:01;;;;;;;1.15;0.93;;;;;;;16.15;47.26;100489.28;8657173;33;20180;-75
2021/10/04 16:19:04;;;;;;;1.15;1.00;;;;;;;15.88;48.10;100493.81;8659413;33;20630;-75
2021/10/04 16:24:12;;;;;;;1.05;0.95;;;;;;;15.67;48.60;100491.44;8656930;33;20188;-75
2021/10/04 16:29:15;;;;;;;2.33;1.63;;;;;;;15.44;49.32;100496.47;8631888;33;20149;-75
2021/10/04 16:34:19;;;;;;;1.90;1.40;;;;;;;15.27;49.71;100508.06;8657127;33;20211;-75
2021/10/04 16:39:23;;;;;;;3.00;1.77;;;;;;;15.17;50.35;100493.75;8633197;33;20518;-76
2021/10/04 16:44:26;;;;;;;3.20;1.27;;;;;;;15.17;50.31;100493.75;8657068;33;20279;-74
2021/10/04 16:49:31;;;;;;;1.85;1.63;;;;;;;15.05;50.65;100484.97;8660297;33;20192;-75
2021/10/04 16:54:36;;;;;;;2.00;1.20;;;;;;;14.99;50.69;100493.72;8653404;33;20184;-75
2021/10/04 16:59:39;;;;;;;5.20;1.70;;;;;;;14.86;51.29;100493.19;8662060;33;20188;-75
2021/10/04 17:04:42;;;;;;;5.50;3.45;;;;;;;14.75;51.76;100496.94;8657161;33;20191;-74
2021/10/04 17:09:46;;;;;;;2.65;1.58;;;;;;;14.51;52.66;100503.75;8658822;33;20447;-75
2021/10/04 17:14:50;;;;;;;3.97;1.60;;;;;;;14.31;53.23;100500.19;8656551;33;20188;-75
2021/10/04 17:19:53;;;;;;;2.33;1.88;;;;;;;14.26;53.71;100513.31;8656351;33;21016;-75
2021/10/04 17:24:57;;;;;;;3.13;1.80;;;;;;;14.04;54.25;100505.50;8656555;33;20192;-75
2021/10/04 17:30:00;;;;;;;2.30;2.10;;;;;;;13.97;54.65;100505.22;8661227;33;20177;-75
2021/10/04 17:35:04;;;;;;;2.53;2.15;;;;;;;13.77;55.31;100504.41;8660672;33;20563;-73
2021/10/04 17:40:11;;;;;;;2.90;2.05;;;;;;;13.58;56.02;100494.44;8660957;33;21294;-73
2021/10/04 17:45:15;;;;;;;2.72;1.67;;;;;;;13.51;56.47;100495.97;8600757;33;20156;-73
2021/10/04 17:50:19;;;;;;;2.67;2.10;;;;;;;13.50;56.53;100499.69;8603421;33;20189;-72
2021/10/04 17:55:23;;;;;;;4.45;2.85;;;;;;;13.46;56.77;100490.16;8603169;33;20189;-72
2021/10/04 18:00:26;;;;;;;4.75;2.30;;;;;;;13.36;56.90;100500.91;8603646;33;20149;-73
2021/10/04 18:05:29;;;;;;;4.43;2.92;;;;;;;13.18;57.03;100495.34;8603849;33;20304;-72
2021/10/04 18:10:34;;;;;;;3.00;2.42;;;;;;;13.04;57.66;100482.25;8603419;33;20994;-72
2021/10/04 18:15:38;;;;;;;3.17;1.70;;;;;;;12.99;57.76;100482.66;8602445;33;20191;-72
2021/10/04 18:20:41;;;;;;;3.53;1.70;;;;;;;12.87;58.26;100483.75;8603341;33;20693;-72
2021/10/04 18:25:45;;;;;;;2.05;1.63;;;;;;;12.77;58.87;100490.94;8602244;33;20670;-72
2021/10/04 18:30:49;;;;;;;3.63;1.45;;;;;;;12.73;59.74;100479.59;8662673;33;20172;-72
2021/10/04 18:35:52;;;;;;;2.95;2.17;;;;;;;12.66;60.66;100488.34;8668288;33;20183;-73
2021/10/04 18:40:57;;;;;;;2.20;2.00;;;;;;;12.42;62.18;100494.91;8659191;33;20196;-73
2021/10/04 18:46:00;;;;;;;2.58;1.95;;;;;;;12.40;63.10;100488.81;8656336;33;20194;-72
2021/10/04 18:51:03;;;;;;;1.70;1.60;;;;;;;12.39;63.58;100489.78;8657252;33;20171;-73
2021/10/04 18:56:08;;;;;;;2.50;2.25;;;;;;;12.35;64.26;100482.97;8658465;33;20188;-73
2021/10/04 19:01:13;;;;;;;3.75;2.42;;;;;;;12.37;64.32;100491.78;8699033;33;20237;-73
2021/10/04 19:06:16;;;;;;;3.45;3.13;;;;;;;12.26;64.82;100487.28;8716850;33;20224;-73
2021/10/04 19:11:22;;;;;;;3.38;2.67;;;;;;;12.09;65.36;100486.03;8716835;33;21114;-73
2021/10/04 19:16:26;;;;;;;2.25;2.05;;;;;;;12.00;66.22;100480.59;8716490;33;20746;-73
2021/10/04 19:21:29;;;;;;;3.15;2.75;;;;;;;11.92;66.55;100481.25;8716965;33;20862;-74
2021/10/04 19:26:33;;;;;;;6.65;2.80;;;;;;;11.93;66.90;100480.28;8716590;33;20553;-73
2021/10/04 19:31:37;;;;;;;3.33;2.80;;;;;;;11.93;67.10;100482.97;8716663;33;20160;-73
2021/10/04 19:36:39;;;;;;;3.90;2.53;;;;;;;11.87;67.57;100470.84;8709884;33;21709;-73
2021/10/04 19:41:44;;;;;;;3.15;2.85;;;;;;;11.72;68.15;100473.03;8654223;33;20177;-73
2021/10/04 19:46:47;;;;;;;4.18;2.90;;;;;;;11.82;67.95;100469.53;8655401;33;20421;-73
2021/10/04 19:51:55;;;;;;;3.72;3.20;;;;;;;11.77;68.19;100474.50;8657790;33;20785;-74
2021/10/04 19:57:00;;;;;;;5.30;3.75;;;;;;;11.71;68.28;100474.03;8657290;33;20487;-73
2021/10/04 20:02:03;;;;;;;5.85;3.60;;;;;;;11.56;68.89;100479.81;8657853;33;20192;-73
2021/10/04 20:07:06;;;;;;;4.47;3.53;;;;;;;11.55;69.10;100472.75;8657332;33;20733;-74
2021/10/04 20:12:11;;;;;;;4.85;3.42;;;;;;;11.50;69.25;100473.97;8657601;33;20153;-73
2021/10/04 20:17:14;;;;;;;4.28;3.83;;;;;;;11.44;69.70;100474.50;8655759;33;20212;-73
2021/10/04 20:22:17;;;;;;;6.85;3.85;;;;;;;11.42;69.66;100470.22;8654060;33;20172;-73
2021/10/04 20:27:22;;;;;;;4.57;4.03;;;;;;;11.41;69.90;100468.50;8629480;33;20208;-73
2021/10/04 20:32:25;;;;;;;7.88;4.05;;;;;;;11.46;70.17;100466.28;8655266;33;20191;-73
2021/10/04 20:37:28;;;;;;;4.50;3.80;;;;;;;11.44;69.89;100473.66;8632118;33;20218;-73
2021/10/04 20:42:32;;;;;;;6.43;4.07;;;;;;;11.36;70.11;100468.91;8656958;33;20423;-73
2021/10/04 20:47:37;;;;;;;5.95;4.00;;;;;;;11.31;70.34;100478.31;8656841;33;20194;-73
2021/10/04 20:52:40;;;;;;;5.63;4.05;;;;;;;11.31;70.26;100465.72;8644981;33;20196;-74
2021/10/04 20:57:44;;;;;;;5.82;3.95;;;;;;;11.24;70.37;100460.03;8654854;33;20606;-73
2021/10/04 21:02:47;;;;;;;4.32;3.67;;;;;;;11.12;70.84;100455.63;8651211;33;21599;-74
2021/10/04 21:07:51;;;;;;;8.95;4.70;;;;;;;11.03;71.18;100456.38;8654818;33;20716;-73
2021/10/04 21:12:55;;;;;;;5.50;3.90;;;;;;;11.01;70.98;100461.00;8660855;33;20170;-74
2021/10/04 21:17:59;;;;;;;7.28;4.25;;;;;;;10.93;71.15;100464.31;8655113;33;20347;-74
2021/10/04 21:23:03;;;;;;;6.90;4.72;;;;;;;10.95;71.11;100458.84;8658900;33;20308;-74
2021/10/04 21:28:07;;;;;;;6.20;4.35;;;;;;;10.84;71.42;100452.50;8661059;33;20666;-73
2021/10/04 21:33:10;;;;;;;5.68;4.15;;;;;;;10.86;71.26;100446.13;8661043;33;20439;-73
2021/10/04 21:38:13;;;;;;;5.57;4.28;;;;;;;10.80;71.53;100451.00;8661127;33;20560;-74
2021/10/04 21:43:17;;;;;;;5.78;4.50;;;;;;;10.74;71.55;100458.72;8660522;33;20199;-73
2021/10/04 21:48:20;;;;;;;7.93;5.18;;;;;;;10.67;71.68;100447.63;8660960;33;20144;-74
2021/10/04 21:53:23;;;;;;;5.97;4.43;;;;;;;10.67;71.90;100446.75;8660049;33;20180;-74
2021/10/04 21:58:28;;;;;;;5.35;4.68;;;;;;;10.65;72.09;100446.03;8659921;33;20659;-74
2021/10/04 22:03:48;;;;;;;5.95;4.60;;;;;;;10.62;71.73;100452.53;8659464;33;20149;-74
2021/10/04 22:14:14;;;;;;;8.65;5.20;;;;;;;10.28;72.41;100443.59;8658096;33;20185;-74
2021/10/04 22:19:17;;;;;;;7.10;4.85;;;;;;;10.19;72.81;100430.91;8659127;33;20153;-74
2021/10/04 22:24:21;;;;;;;9.27;5.68;;;;;;;10.12;73.18;100417.97;8658863;33;20203;-74
2021/10/04 22:29:25;;;;;;;8.63;5.07;;;;;;;10.10;73.32;100419.06;8658857;33;20603;-74
2021/10/04 22:34:28;;;;;;;6.03;4.75;;;;;;;10.12;73.57;100409.03;8658458;33;20141;-74
2021/10/04 22:39:31;;;;;;;7.72;5.50;;;;;;;10.10;73.71;100402.97;8634389;33;20743;-74
2021/10/04 22:44:35;;;;;;;9.25;5.95;;;;;;;10.10;73.90;100405.66;8655372;33;20185;-74
2021/10/04 22:49:38;;;;;;;8.82;5.65;;;;;;;10.08;73.73;100399.53;8659120;33;20967;-74
2021/10/04 22:54:41;;;;;;;9.10;5.22;;;;;;;10.11;73.74;100389.41;8658550;33;21437;-74
2021/10/04 22:59:45;;;;;;;5.85;4.97;;;;;;;10.10;73.85;100395.75;8658704;33;20852;-74
2021/10/04 23:04:48;;;;;;;8.73;6.07;;;;;;;10.13;73.51;100394.66;8647748;33;20511;-74
2021/10/04 23:09:51;;;;;;;6.80;5.18;;;;;;;10.14;73.62;100396.34;8659073;33;20184;-74
2021/10/04 23:14:55;;;;;;;7.22;5.32;;;;;;;10.15;73.53;100398.94;8658128;33;20188;-74
2021/10/04 23:19:58;;;;;;;8.27;5.70;;;;;;;10.12;73.33;100396.50;8658216;33;20631;-74
2021/10/04 23:25:01;;;;;;;9.25;5.38;;;;;;;10.11;73.62;100388.56;8657846;33;21063;-74
2021/10/04 23:30:08;;;;;;;9.20;6.70;;;;;;;10.03;73.60;100388.31;8658432;33;20162;-74
2021/10/04 23:35:11;;;;;;;9.20;6.03;;;;;;;9.94;73.87;100373.78;8657835;33;20696;-74
2021/10/04 23:40:18;;;;;;;7.50;5.70;;;;;;;9.88;74.13;100363.53;8657807;33;20878;-74